Zagazig, Egypt
Current Conditions -  °F | °C
As of 9:30 AM on Tuesday 21 Oct 2014 (Local Time) from HECA Reporting Station
Clear Clear  
Wind Chill: 75°   Ceiling: Unl
Heat Index: 75°   Visibility: 6mi
Dew Point: 50°   Wind: 0mph
Humidity: 41%   Direction: NA
Pressure: 30.03"   Gusts: NA
Location:  30.58°N, 31.48°E
Report Text: HECA 210730Z 00000KT CAVOK 24/10 Q1017 NOSIG
Loading
Personal Weather Stations






























Interactive Weather Map
Tropical Storm Tracking
New forecast layout! Learn more

10-Day Weather Forecast

Advertisements
Track Severe Weather on mobile